Time;durP1;ratioP1;P1;durP2;ratioP2;P2;SDS_P1;SDS_P2;PMS_P1;PMS_P2;Temp;Humidity;BMP_temperature;BMP_pressure;BME280_temperature;BME280_humidity;BME280_pressure;Samples;Min_cycle;Max_cycle;Signal;HPM_P1;HPM_P2
2021/09/04 00:01:42;;;;;;;6.07;5.47;;;;;;;18.43;51.98;97526.34;5041741;28;20052;-77
2021/09/04 00:04:08;;;;;;;7.15;6.18;;;;;;;18.39;52.00;97514.28;5024819;28;20482;-77
2021/09/04 00:06:34;;;;;;;8.90;5.80;;;;;;;18.46;52.20;97517.78;5041210;28;20093;-77
2021/09/04 00:09:01;;;;;;;10.43;5.65;;;;;;;18.36;52.19;97493.09;5074379;28;20118;-77
2021/09/04 00:11:27;;;;;;;9.05;5.78;;;;;;;18.38;51.87;97485.56;5057710;28;20051;-77
2021/09/04 00:13:53;;;;;;;9.63;6.18;;;;;;;18.36;52.34;97493.09;5024238;28;20503;-77
2021/09/04 00:16:19;;;;;;;6.75;5.65;;;;;;;18.35;52.37;97502.22;5074256;28;20087;-76
2021/09/04 00:18:45;;;;;;;15.10;6.13;;;;;;;18.36;52.39;97482.28;5024485;28;20060;-77
2021/09/04 00:21:11;;;;;;;17.00;6.53;;;;;;;18.36;52.21;97471.47;5040987;28;20051;-78
2021/09/04 00:23:37;;;;;;;9.27;5.75;;;;;;;18.35;52.33;97461.66;5040843;28;20135;-77
2021/09/04 00:26:06;;;;;;;6.50;5.90;;;;;;;18.26;52.31;97427.81;5041572;28;20452;-77
2021/09/04 00:28:32;;;;;;;8.70;5.97;;;;;;;18.29;52.53;97424.69;5024087;28;20131;-77
2021/09/04 00:30:58;;;;;;;7.75;6.38;;;;;;;18.25;52.26;97420.75;5073888;28;20040;-77
2021/09/04 00:33:23;;;;;;;8.20;6.68;;;;;;;18.27;52.25;97429.47;5073907;28;20044;-77
2021/09/04 00:35:49;;;;;;;15.32;6.55;;;;;;;18.27;52.32;97418.66;5007895;28;20036;-77
2021/09/04 00:38:15;;;;;;;7.15;6.07;;;;;;;18.30;52.37;97413.63;5057162;28;20037;-76
2021/09/04 00:40:41;;;;;;;7.88;6.30;;;;;;;18.29;52.56;97422.81;5057126;28;20591;-76
2021/09/04 00:43:08;;;;;;;8.65;6.20;;;;;;;18.35;52.42;97416.50;5056913;28;20040;-76
2021/09/04 00:45:34;;;;;;;7.03;5.80;;;;;;;18.30;52.31;97408.22;5023939;28;20047;-78
2021/09/04 00:48:04;;;;;;;8.48;5.80;;;;;;;18.34;52.58;97435.66;5007678;28;20478;-77
2021/09/04 00:50:32;;;;;;;11.50;6.22;;;;;;;18.32;52.90;97437.78;5024256;28;20411;-75
2021/09/04 00:52:58;;;;;;;9.80;6.43;;;;;;;18.30;52.82;97429.03;5056929;28;20090;-76
2021/09/04 00:55:24;;;;;;;11.85;6.10;;;;;;;18.27;52.71;97427.59;5056795;28;20070;-75
2021/09/04 00:57:50;;;;;;;6.70;6.03;;;;;;;18.29;52.89;97430.91;5039898;28;20048;-74
2021/09/04 01:00:17;;;;;;;13.45;7.40;;;;;;;18.32;52.83;97430.50;5040602;28;20048;-75
2021/09/04 01:02:44;;;;;;;14.93;7.18;;;;;;;18.30;52.98;97429.03;5040436;28;20048;-76
2021/09/04 01:05:11;;;;;;;8.85;6.82;;;;;;;18.29;53.08;97421.97;5024031;28;20041;-77
2021/09/04 01:07:37;;;;;;;11.38;7.10;;;;;;;18.26;53.13;97406.19;5039904;28;20044;-76
2021/09/04 01:10:06;;;;;;;11.87;6.43;;;;;;;18.06;53.21;97390.09;5073210;28;20049;-76
2021/09/04 01:12:35;;;;;;;7.80;6.45;;;;;;;18.12;53.25;97400.84;5056936;28;20036;-75
2021/09/04 01:15:01;;;;;;;12.63;6.90;;;;;;;18.16;53.26;97407.47;5056609;28;20052;-75
2021/09/04 01:17:28;;;;;;;9.60;7.05;;;;;;;18.16;53.08;97399.38;5040171;28;20045;-76
2021/09/04 01:19:54;;;;;;;10.25;6.72;;;;;;;18.21;53.31;97396.03;5006871;28;20036;-76
2021/09/04 01:22:20;;;;;;;7.38;6.28;;;;;;;18.33;52.95;97396.16;5056350;28;20135;-77
2021/09/04 01:24:48;;;;;;;9.43;6.63;;;;;;;18.36;52.55;97401.13;5039688;28;20416;-76
2021/09/04 01:27:18;;;;;;;10.65;6.63;;;;;;;18.40;52.87;97396.94;5007235;28;20515;-76
2021/09/04 01:29:44;;;;;;;9.75;6.68;;;;;;;18.40;52.74;97403.16;5056351;28;20070;-76
2021/09/04 01:32:10;;;;;;;7.88;6.75;;;;;;;18.33;52.76;97394.28;5023026;28;20048;-75
2021/09/04 01:34:37;;;;;;;9.60;6.68;;;;;;;18.37;53.12;97419.00;5023153;28;20051;-76
2021/09/04 01:37:03;;;;;;;11.38;6.60;;;;;;;18.32;53.72;97443.19;5039512;28;20094;-76
2021/09/04 01:39:29;;;;;;;8.95;6.88;;;;;;;18.22;53.80;97448.25;5056487;28;20122;-75
2021/09/04 01:41:55;;;;;;;10.60;6.55;;;;;;;18.12;53.93;97444.13;5022666;28;20036;-75
2021/09/04 01:44:21;;;;;;;8.85;6.82;;;;;;;18.19;54.36;97471.94;5023005;28;20533;-76
2021/09/04 01:46:47;;;;;;;10.25;7.30;;;;;;;18.15;55.62;97494.25;5006646;28;20164;-75
2021/09/04 01:49:15;;;;;;;13.88;7.95;;;;;;;18.06;55.36;97504.50;5023347;28;20052;-75
2021/09/04 01:51:41;;;;;;;18.98;8.10;;;;;;;17.83;56.39;97509.59;5022703;28;20083;-77
2021/09/04 01:54:08;;;;;;;8.57;7.72;;;;;;;17.65;56.85;97529.13;5055592;28;20036;-76
2021/09/04 01:56:34;;;;;;;14.00;7.72;;;;;;;17.40;58.25;97521.69;5038718;28;20059;-76
2021/09/04 01:59:00;;;;;;;10.70;7.97;;;;;;;17.10;59.64;97526.72;5021846;28;20440;-77
2021/09/04 02:01:26;;;;;;;16.02;8.57;;;;;;;16.85;60.63;97541.88;5055828;28;20267;-77
2021/09/04 02:03:52;;;;;;;8.98;8.00;;;;;;;16.53;62.43;97544.31;5022389;28;20174;-77
2021/09/04 02:06:18;;;;;;;13.90;8.70;;;;;;;16.19;64.70;97518.28;5038793;28;20048;-77
2021/09/04 02:08:44;;;;;;;14.00;8.13;;;;;;;16.01;65.84;97527.75;5022394;28;20036;-77
2021/09/04 02:11:10;;;;;;;11.80;8.90;;;;;;;16.05;66.47;97543.53;5022486;28;20055;-75
2021/09/04 02:13:36;;;;;;;13.05;9.88;;;;;;;15.86;68.43;97548.63;5055089;28;20567;-76
2021/09/04 02:16:02;;;;;;;12.15;8.63;;;;;;;15.69;69.18;97550.03;5055527;28;20048;-76
2021/09/04 02:18:29;;;;;;;12.45;9.25;;;;;;;15.61;69.44;97550.97;5055152;28;20044;-78
2021/09/04 02:20:57;;;;;;;10.82;9.77;;;;;;;15.51;70.15;97555.88;5039464;28;20044;-77
2021/09/04 02:23:24;;;;;;;12.43;9.70;;;;;;;15.47;69.78;97552.75;5072013;28;20070;-75
2021/09/04 02:25:50;;;;;;;15.15;9.90;;;;;;;15.49;69.65;97539.91;5038586;28;20491;-74
2021/09/04 02:28:16;;;;;;;12.45;9.30;;;;;;;15.53;69.42;97540.34;5022249;28;20040;-76
2021/09/04 02:30:42;;;;;;;14.43;9.32;;;;;;;15.46;70.00;97529.56;5054951;28;20502;-76
2021/09/04 02:33:10;;;;;;;15.35;9.50;;;;;;;15.48;69.69;97529.34;5054995;28;20076;-77
2021/09/04 02:35:37;;;;;;;11.82;9.80;;;;;;;15.55;69.98;97535.59;5038716;28;20052;-76
2021/09/04 02:38:03;;;;;;;11.75;8.63;;;;;;;15.55;69.70;97530.22;5038500;28;20075;-76
2021/09/04 02:40:30;;;;;;;12.35;9.02;;;;;;;15.52;70.25;97522.53;5038189;28;20048;-78
2021/09/04 02:42:56;;;;;;;14.02;9.40;;;;;;;15.50;70.26;97521.91;5055072;28;20051;-77
2021/09/04 02:45:23;;;;;;;12.38;9.55;;;;;;;15.58;70.38;97515.53;5070789;28;20048;-76
2021/09/04 02:47:49;;;;;;;11.40;9.40;;;;;;;15.57;70.42;97514.72;5022741;28;20032;-76
2021/09/04 02:50:15;;;;;;;10.68;9.55;;;;;;;15.43;70.94;97505.72;5047101;28;20471;-76
2021/09/04 02:52:42;;;;;;;10.68;9.32;;;;;;;15.37;71.26;97508.38;5021538;28;20093;-76
2021/09/04 02:55:09;;;;;;;12.23;10.15;;;;;;;15.35;71.06;97507.75;5054817;28;20045;-77
2021/09/04 02:57:35;;;;;;;16.45;10.20;;;;;;;15.39;71.49;97512.53;5021501;28;20048;-75
2021/09/04 03:00:03;;;;;;;11.68;10.48;;;;;;;15.37;71.67;97519.13;5038211;28;20146;-76
2021/09/04 03:02:30;;;;;;;12.43;10.30;;;;;;;15.37;71.71;97508.38;5038404;28;20082;-78
2021/09/04 03:04:56;;;;;;;15.35;9.40;;;;;;;15.49;71.43;97509.47;5037419;28;20048;-76
2021/09/04 03:07:22;;;;;;;10.75;9.65;;;;;;;15.44;71.75;97509.22;5054673;28;20045;-75
2021/09/04 03:09:48;;;;;;;11.60;9.80;;;;;;;15.55;71.92;97512.19;5021005;28;20040;-75
2021/09/04 03:12:18;;;;;;;10.80;8.77;;;;;;;15.55;71.49;97517.59;5038760;28;20062;-75
2021/09/04 03:14:45;;;;;;;10.25;8.50;;;;;;;15.49;72.28;97512.16;5070612;28;20044;-75
2021/09/04 03:17:12;;;;;;;12.30;8.70;;;;;;;15.55;72.32;97528.34;5021214;28;20492;-79
2021/09/04 03:19:38;;;;;;;13.25;8.75;;;;;;;15.43;73.32;97531.81;5036737;28;20090;-78
2021/09/04 03:22:05;;;;;;;11.77;8.43;;;;;;;15.42;72.67;97522.06;5021619;28;20048;-76
2021/09/04 03:24:31;;;;;;;7.93;7.13;;;;;;;15.35;73.02;97532.81;5004886;28;20063;-74
2021/09/04 03:26:57;;;;;;;8.02;6.18;;;;;;;15.23;72.90;97531.66;5054054;28;20041;-79
2021/09/04 03:29:24;;;;;;;8.93;6.18;;;;;;;15.24;72.48;97528.78;5020984;28;20037;-78
2021/09/04 03:31:50;;;;;;;7.03;5.78;;;;;;;15.21;72.12;97537.25;5053678;28;20689;-76
2021/09/04 03:34:16;;;;;;;7.35;4.95;;;;;;;15.17;72.10;97535.16;5020408;28;20135;-76
2021/09/04 03:36:43;;;;;;;9.32;5.00;;;;;;;15.14;72.12;97536.38;5053996;28;20045;-78
2021/09/04 03:39:09;;;;;;;5.45;4.03;;;;;;;14.96;72.04;97520.69;5053857;28;20043;-75
2021/09/04 03:41:35;;;;;;;5.20;4.13;;;;;;;15.00;72.14;97540.81;5036982;28;20045;-76
2021/09/04 03:44:02;;;;;;;7.35;4.18;;;;;;;14.99;72.00;97530.25;5070510;28;20119;-78
2021/09/04 03:46:29;;;;;;;4.78;3.58;;;;;;;14.91;72.20;97519.63;5021362;28;20045;-77
2021/09/04 03:48:59;;;;;;;4.75;4.22;;;;;;;14.69;72.56;97495.44;5069823;28;20097;-76
2021/09/04 03:51:26;;;;;;;8.85;3.42;;;;;;;14.79;72.57;97506.72;5037626;28;20045;-76
2021/09/04 03:53:53;;;;;;;4.05;3.67;;;;;;;14.88;72.57;97501.19;5070413;28;20044;-77
2021/09/04 03:56:22;;;;;;;5.72;3.35;;;;;;;14.88;71.94;97501.19;5037694;28;20152;-81
2021/09/04 03:58:49;;;;;;;3.50;2.73;;;;;;;14.86;72.50;97487.13;5037721;28;20043;-80
2021/09/04 04:01:15;;;;;;;4.95;2.90;;;;;;;14.84;72.40;97483.78;5020806;28;20098;-76
2021/09/04 04:03:42;;;;;;;3.28;2.83;;;;;;;14.90;71.61;97491.09;5020456;28;20196;-75
2021/09/04 04:06:09;;;;;;;5.43;3.20;;;;;;;14.96;71.71;97484.91;5037529;28;20049;-74
2021/09/04 04:08:35;;;;;;;7.13;3.50;;;;;;;14.81;72.27;97467.00;5037006;28;20094;-74
2021/09/04 04:11:06;;;;;;;5.47;3.30;;;;;;;14.96;72.27;97476.81;5037086;28;20048;-74
2021/09/04 04:13:32;;;;;;;9.77;4.00;;;;;;;15.02;71.72;97482.25;5036927;28;20404;-83
2021/09/04 04:16:02;;;;;;;6.57;3.45;;;;;;;15.03;71.61;97483.09;5022247;28;20037;-75
2021/09/04 04:18:31;;;;;;;10.57;3.15;;;;;;;15.09;71.47;97473.41;5069525;28;20135;-78
2021/09/04 04:20:58;;;;;;;9.30;3.67;;;;;;;15.24;71.54;97476.81;5054626;28;20048;-80
2021/09/04 04:23:25;;;;;;;4.78;3.78;;;;;;;15.18;71.03;97478.44;5040805;28;20507;-75
2021/09/04 04:25:51;;;;;;;5.63;3.85;;;;;;;15.14;70.79;97481.72;5073610;28;20358;-76
2021/09/04 04:28:17;;;;;;;4.13;3.47;;;;;;;15.11;71.01;97477.56;5024392;28;20040;-74
2021/09/04 04:30:44;;;;;;;4.25;3.50;;;;;;;15.10;70.76;97486.66;5073739;28;20093;-75
2021/09/04 04:33:12;;;;;;;5.70;3.80;;;;;;;15.11;70.98;97488.31;5040988;28;20048;-76
2021/09/04 04:35:40;;;;;;;;;;;;;;;15.16;70.94;97480.50;5024626;28;20079;-76
2021/09/04 04:38:07;;;;;;;3.70;3.03;;;;;;;15.00;71.56;97491.56;5056698;28;19952;-78
2021/09/04 04:40:35;;;;;;;8.35;3.60;;;;;;;14.85;71.82;97482.75;5023881;28;20040;-74
2021/09/04 04:43:01;;;;;;;4.00;3.20;;;;;;;14.92;71.95;97497.09;5056633;28;20045;-75
2021/09/04 04:45:27;;;;;;;7.57;3.47;;;;;;;14.83;72.49;97493.72;5039980;28;20051;-75
2021/09/04 04:47:54;;;;;;;9.05;3.90;;;;;;;14.90;72.65;97494.59;5039862;28;20044;-76
2021/09/04 04:50:20;;;;;;;6.75;4.53;;;;;;;14.92;72.88;97497.09;5038245;28;20045;-74
2021/09/04 04:52:46;;;;;;;5.30;3.50;;;;;;;14.91;72.89;97490.03;5039466;28;20051;-74
2021/09/04 04:55:12;;;;;;;3.95;3.28;;;;;;;14.91;72.65;97487.34;5056038;28;20058;-76
2021/09/04 04:57:39;;;;;;;6.93;4.35;;;;;;;14.90;72.84;97489.22;5039647;28;20473;-75
2021/09/04 05:00:07;;;;;;;5.43;4.35;;;;;;;15.00;72.67;97486.16;5040261;28;20086;-75
2021/09/04 05:02:33;;;;;;;6.82;5.03;;;;;;;14.91;73.22;97476.59;5040007;28;20131;-75
2021/09/04 05:04:59;;;;;;;7.50;5.47;;;;;;;14.89;73.19;97473.25;5039459;28;20124;-76
2021/09/04 05:07:25;;;;;;;13.57;9.90;;;;;;;15.10;72.77;97480.44;5055845;28;20495;-74
2021/09/04 05:09:51;;;;;;;10.05;6.68;;;;;;;15.13;73.09;97483.59;5056367;28;20052;-76
2021/09/04 05:12:17;;;;;;;15.75;7.65;;;;;;;15.13;72.75;97470.13;5040041;28;20044;-76
2021/09/04 05:14:44;;;;;;;12.23;7.70;;;;;;;15.10;72.93;97459.75;5006872;28;20564;-76
2021/09/04 05:17:10;;;;;;;12.20;8.00;;;;;;;15.15;72.49;97457.28;5056060;28;20067;-74
2021/09/04 05:19:36;;;;;;;17.25;8.10;;;;;;;15.21;72.98;97486.13;5038545;28;20499;-74
2021/09/04 05:22:02;;;;;;;14.25;8.82;;;;;;;15.29;72.72;97479.75;5022920;28;20045;-75
2021/09/04 05:24:30;;;;;;;17.77;8.68;;;;;;;15.25;72.76;97479.31;5040103;28;20419;-75
2021/09/04 05:26:56;;;;;;;14.68;9.30;;;;;;;15.30;72.54;97487.59;5055894;28;20048;-75
2021/09/04 05:29:22;;;;;;;16.80;10.35;;;;;;;15.32;72.75;97500.06;5039243;28;20044;-80
2021/09/04 05:31:49;;;;;;;15.50;10.52;;;;;;;15.32;73.44;97490.13;5022885;28;20048;-79
2021/09/04 05:34:15;;;;;;;14.32;10.27;;;;;;;15.35;73.24;97484.34;5056159;28;20036;-84
2021/09/04 05:36:41;;;;;;;16.42;10.30;;;;;;;15.59;72.79;97503.72;5006787;28;20045;-77
2021/09/04 05:39:07;;;;;;;13.98;10.55;;;;;;;15.64;72.71;97514.72;5039713;28;20087;-86
2021/09/04 05:41:33;;;;;;;14.25;9.70;;;;;;;15.72;72.91;97507.34;5029790;28;20043;-78
2021/09/04 05:43:59;;;;;;;12.30;9.10;;;;;;;15.78;72.38;97498.44;5069076;28;20060;-80
2021/09/04 05:46:25;;;;;;;13.68;8.82;;;;;;;15.96;71.99;97505.16;5045668;28;20065;-84
2021/09/04 05:48:51;;;;;;;9.20;8.13;;;;;;;16.22;71.61;97499.84;5038150;28;20170;-82
2021/09/04 05:51:17;;;;;;;9.48;8.30;;;;;;;16.43;70.94;97512.31;5022677;28;20523;-80
2021/09/04 05:53:43;;;;;;;12.07;7.15;;;;;;;16.58;70.04;97506.75;5022850;28;20058;-78
2021/09/04 05:56:10;;;;;;;9.75;7.55;;;;;;;16.53;69.37;97514.63;5022472;28;20140;-79
2021/09/04 05:58:36;;;;;;;8.15;7.25;;;;;;;16.43;69.83;97519.59;5039283;28;20105;-80
2021/09/04 06:01:02;;;;;;;8.23;7.38;;;;;;;16.46;69.70;97505.69;5022640;28;20127;-80
2021/09/04 06:03:28;;;;;;;8.38;6.90;;;;;;;16.50;69.57;97498.84;5056041;28;20394;-79
2021/09/04 06:05:57;;;;;;;10.00;7.32;;;;;;;16.66;69.23;97498.47;5022352;28;20041;-78
2021/09/04 06:08:24;;;;;;;8.05;7.25;;;;;;;16.80;68.51;97493.09;5023277;28;20459;-79
2021/09/04 06:10:51;;;;;;;8.05;7.10;;;;;;;17.01;68.08;97501.00;5022732;28;20049;-79
2021/09/04 06:13:17;;;;;;;9.30;7.00;;;;;;;16.97;67.98;97505.97;5038930;28;20510;-78
2021/09/04 06:15:43;;;;;;;8.43;7.40;;;;;;;17.08;67.56;97504.53;5072029;28;20043;-79
2021/09/04 06:18:10;;;;;;;8.75;7.82;;;;;;;17.04;67.28;97502.44;5022388;28;20120;-79
2021/09/04 06:20:37;;;;;;;8.25;6.88;;;;;;;17.11;67.40;97512.22;5039146;28;20044;-79
2021/09/04 06:23:03;;;;;;;7.72;6.95;;;;;;;17.09;66.97;97503.47;5038924;28;20496;-79
2021/09/04 06:25:29;;;;;;;10.75;7.35;;;;;;;17.05;66.91;97515.72;5051652;28;20040;-79
2021/09/04 06:27:55;;;;;;;9.13;7.82;;;;;;;16.98;67.03;97510.31;5042491;28;20131;-79
2021/09/04 06:30:21;;;;;;;8.35;7.50;;;;;;;17.10;67.20;97515.94;5041882;28;20036;-79
2021/09/04 06:32:47;;;;;;;8.63;7.22;;;;;;;16.98;67.03;97515.72;5093260;28;20048;-79
2021/09/04 06:35:13;;;;;;;8.23;7.28;;;;;;;17.16;66.88;97514.28;5075660;28;20048;-78
2021/09/04 06:37:39;;;;;;;7.03;6.32;;;;;;;17.09;67.02;97518.84;5041935;28;20101;-79
2021/09/04 06:40:06;;;;;;;8.20;5.47;;;;;;;16.86;65.73;97521.97;5016665;28;20041;-78
2021/09/04 06:42:32;;;;;;;6.45;5.80;;;;;;;16.90;66.37;97513.25;5055097;28;20190;-79
2021/09/04 06:44:58;;;;;;;8.13;7.00;;;;;;;17.06;66.52;97520.09;5040194;28;20047;-80
2021/09/04 06:47:24;;;;;;;5.75;5.15;;;;;;;16.96;64.96;97536.72;5058286;28;20178;-79
2021/09/04 06:49:50;;;;;;;7.63;5.28;;;;;;;17.04;64.79;97529.41;5057999;28;20508;-79
2021/09/04 06:52:16;;;;;;;6.13;4.85;;;;;;;16.91;64.70;97527.56;5053144;28;20140;-78
2021/09/04 06:54:42;;;;;;;5.07;4.57;;;;;;;16.79;65.14;97537.31;5037957;28;20048;-78
2021/09/04 06:57:08;;;;;;;5.97;5.00;;;;;;;16.66;65.25;97532.69;5038043;28;20056;-78
2021/09/04 06:59:34;;;;;;;6.15;4.15;;;;;;;16.56;64.42;97546.59;5021749;28;20037;-79
2021/09/04 07:02:01;;;;;;;7.82;4.20;;;;;;;16.58;65.21;97560.69;5038027;28;20045;-79
2021/09/04 07:04:27;;;;;;;5.68;3.70;;;;;;;16.33;65.27;97581.19;5022277;28;20075;-78
2021/09/04 07:06:53;;;;;;;5.00;4.50;;;;;;;16.17;66.37;97564.34;5055313;28;20511;-78
2021/09/04 07:09:19;;;;;;;6.55;4.90;;;;;;;16.12;65.63;97564.09;5021484;28;20044;-77
2021/09/04 07:11:45;;;;;;;5.18;4.70;;;;;;;16.14;66.34;97570.13;5022692;28;20037;-77
2021/09/04 07:14:11;;;;;;;5.65;5.03;;;;;;;16.15;66.12;97582.56;5038179;28;20040;-78
2021/09/04 07:16:37;;;;;;;5.60;5.00;;;;;;;16.01;67.30;97576.28;5037783;28;20093;-79
2021/09/04 07:19:03;;;;;;;8.52;5.72;;;;;;;15.94;68.23;97590.75;5021468;28;20502;-79
2021/09/04 07:21:29;;;;;;;7.05;5.82;;;;;;;15.90;68.49;97578.72;5054591;28;20040;-79
2021/09/04 07:23:56;;;;;;;7.38;5.45;;;;;;;15.67;68.75;97587.91;5037846;28;20056;-80
2021/09/04 07:26:21;;;;;;;5.68;5.18;;;;;;;15.58;69.24;97585.56;5021112;28;20054;-80
2021/09/04 07:28:47;;;;;;;5.95;5.40;;;;;;;15.48;70.21;97581.34;5054338;28;20072;-80
2021/09/04 07:31:13;;;;;;;7.25;5.13;;;;;;;15.32;70.85;97586.19;5037700;28;20135;-78
2021/09/04 07:33:39;;;;;;;9.40;5.57;;;;;;;15.25;70.87;97584.28;5021760;28;20076;-80
2021/09/04 07:36:08;;;;;;;6.00;4.82;;;;;;;15.09;71.44;97600.72;5038247;28;20048;-79
2021/09/04 07:38:35;;;;;;;6.95;5.03;;;;;;;14.91;72.39;97601.19;5038582;28;20036;-81
2021/09/04 07:41:01;;;;;;;7.10;5.00;;;;;;;14.84;72.28;97623.66;5038233;28;20040;-80
2021/09/04 07:43:27;;;;;;;5.05;4.53;;;;;;;14.73;72.81;97623.13;5021226;28;20049;-80
2021/09/04 07:45:53;;;;;;;8.52;4.13;;;;;;;14.62;73.01;97623.63;5021061;28;20044;-79
2021/09/04 07:48:19;;;;;;;6.70;4.80;;;;;;;14.47;73.55;97615.56;5005511;28;20155;-80
2021/09/04 07:50:47;;;;;;;5.50;4.38;;;;;;;14.48;73.48;97629.84;5037920;28;20047;-80
2021/09/04 07:53:13;;;;;;;5.40;4.03;;;;;;;14.51;73.79;97634.88;5037459;28;20075;-80
2021/09/04 07:55:39;;;;;;;7.10;4.93;;;;;;;14.49;74.10;97639.59;5005223;28;20423;-78
2021/09/04 07:58:05;;;;;;;6.80;4.75;;;;;;;14.47;74.21;97644.31;5040829;28;20052;-78
2021/09/04 08:00:31;;;;;;;7.80;4.47;;;;;;;14.51;74.26;97653.69;5024645;28;20044;-80
2021/09/04 08:02:57;;;;;;;5.25;4.50;;;;;;;14.48;74.01;97645.97;5057987;28;20082;-79
2021/09/04 08:05:23;;;;;;;5.50;4.25;;;;;;;14.59;73.36;97653.59;5025076;28;20070;-79
2021/09/04 08:07:50;;;;;;;6.70;4.05;;;;;;;14.59;73.65;97656.28;5041423;28;20458;-80
2021/09/04 08:10:16;;;;;;;5.63;3.63;;;;;;;14.54;73.08;97653.34;5024822;28;20045;-80
2021/09/04 08:12:42;;;;;;;5.03;3.60;;;;;;;14.52;73.66;97655.41;5024653;28;20388;-81
2021/09/04 08:15:09;;;;;;;4.45;3.53;;;;;;;14.58;73.92;97652.75;5057722;28;20040;-80
2021/09/04 08:17:35;;;;;;;3.97;3.47;;;;;;;14.76;73.90;97668.47;5041318;28;20091;-80
2021/09/04 08:20:02;;;;;;;5.97;3.67;;;;;;;14.79;73.94;97672.66;5025253;28;20067;-80
2021/09/04 08:22:29;;;;;;;4.93;3.90;;;;;;;14.98;73.77;97676.56;5025592;28;20040;-81
2021/09/04 08:24:55;;;;;;;6.03;4.05;;;;;;;14.97;73.78;97683.81;5008686;28;20487;-80
2021/09/04 08:27:21;;;;;;;4.57;4.07;;;;;;;14.99;73.79;97689.81;5041535;28;20530;-81
2021/09/04 08:29:47;;;;;;;5.22;4.13;;;;;;;14.90;73.67;97663.25;5025047;28;20146;-81
2021/09/04 08:32:14;;;;;;;7.63;5.30;;;;;;;15.15;73.13;97683.34;5062785;28;20041;-82
2021/09/04 08:34:40;;;;;;;5.55;4.60;;;;;;;15.19;72.94;97681.94;5040271;28;20052;-80
2021/09/04 08:37:06;;;;;;;5.43;4.80;;;;;;;15.09;73.37;97684.16;5058418;28;20047;-79
2021/09/04 08:39:32;;;;;;;6.47;5.32;;;;;;;15.20;73.29;97685.50;5072954;28;20133;-81
2021/09/04 08:41:58;;;;;;;4.95;4.43;;;;;;;15.25;73.17;97688.44;5057483;28;20090;-80
2021/09/04 08:44:25;;;;;;;6.13;5.28;;;;;;;15.29;73.08;97695.91;5041952;28;20041;-81
2021/09/04 08:46:51;;;;;;;7.63;5.40;;;;;;;15.29;73.20;97695.09;5051986;28;20036;-81
2021/09/04 08:49:18;;;;;;;5.85;4.78;;;;;;;15.19;73.19;97679.25;5042290;28;20505;-82
2021/09/04 08:51:44;;;;;;;7.05;5.10;;;;;;;15.26;73.48;97701.69;5024794;28;20037;-81
2021/09/04 08:54:11;;;;;;;7.28;4.90;;;;;;;15.40;73.43;97710.72;5024375;28;20047;-82
2021/09/04 08:56:37;;;;;;;9.45;5.38;;;;;;;15.55;73.18;97718.72;5007549;28;20511;-82
2021/09/04 08:59:03;;;;;;;6.63;5.20;;;;;;;15.71;72.86;97699.63;5023417;28;20036;-82
2021/09/04 09:01:30;;;;;;;6.03;5.32;;;;;;;15.88;72.62;97720.91;5023890;28;20518;-82
2021/09/04 09:04:01;;;;;;;5.63;5.13;;;;;;;15.97;72.45;97714.31;5024511;28;20492;-82
2021/09/04 09:06:29;;;;;;;5.78;5.13;;;;;;;16.14;72.19;97725.66;5041020;28;20194;-81
2021/09/04 09:08:55;;;;;;;5.43;4.93;;;;;;;16.56;69.60;97730.03;5024446;28;20123;-81
2021/09/04 09:11:22;;;;;;;6.22;5.15;;;;;;;16.83;68.06;97730.16;5008160;28;20043;-82
2021/09/04 09:13:53;;;;;;;5.35;4.90;;;;;;;17.24;67.52;97719.28;5008249;28;20040;-83
2021/09/04 09:16:20;;;;;;;5.75;4.97;;;;;;;17.60;66.50;97726.16;5041916;28;20139;-80
2021/09/04 09:19:00;;;;;;;9.77;6.28;;;;;;;17.60;65.88;97737.81;5025876;28;20036;-81
2021/09/04 09:21:33;;;;;;;3.78;3.47;;;;;;;17.06;64.60;97790.03;5026191;28;20399;-82
2021/09/04 09:24:13;;;;;;;3.20;2.60;;;;;;;15.96;67.06;97782.72;5057965;28;20040;-82
2021/09/04 09:26:55;;;;;;;3.85;2.58;;;;;;;15.50;68.64;97812.75;5040542;28;20036;-81
2021/09/04 09:29:32;;;;;;;2.25;2.13;;;;;;;15.42;68.03;97818.22;5057876;28;20116;-82
2021/09/04 09:32:10;;;;;;;2.70;2.10;;;;;;;15.34;67.44;97827.25;5026060;28;20465;-82
2021/09/04 09:34:40;;;;;;;3.50;3.20;;;;;;;15.55;68.38;97813.81;5026988;28;20072;-83
2021/09/04 09:37:08;;;;;;;5.53;4.18;;;;;;;15.75;68.13;97821.28;5040755;28;20055;-80
2021/09/04 09:39:38;;;;;;;5.32;3.10;;;;;;;15.85;66.09;97834.44;5039597;28;20123;-81
2021/09/04 09:42:05;;;;;;;5.07;2.58;;;;;;;15.95;65.54;97816.09;5040369;28;20487;-81
2021/09/04 09:44:33;;;;;;;4.55;3.42;;;;;;;16.18;65.41;97824.78;5039541;28;20138;-81
2021/09/04 09:47:00;;;;;;;3.67;3.40;;;;;;;16.44;64.83;97840.34;5039479;28;20135;-80
2021/09/04 09:49:31;;;;;;;3.97;3.67;;;;;;;16.16;64.43;97840.31;5039826;28;20063;-80
2021/09/04 09:52:00;;;;;;;3.72;3.42;;;;;;;15.96;64.21;97842.00;5040202;28;20102;-80
2021/09/04 09:54:26;;;;;;;3.65;3.35;;;;;;;15.75;65.74;97867.91;5039796;28;20079;-79
2021/09/04 09:56:56;;;;;;;2.72;2.53;;;;;;;15.57;64.98;97862.13;5039391;28;20068;-78
2021/09/04 09:59:23;;;;;;;5.35;2.58;;;;;;;15.51;64.98;97868.25;5039645;28;20113;-79
2021/09/04 10:01:49;;;;;;;2.92;2.47;;;;;;;15.83;64.88;97868.81;5022894;28;20134;-79
2021/09/04 10:04:15;;;;;;;2.88;2.63;;;;;;;16.03;64.08;97913.81;5022670;28;20048;-80
2021/09/04 10:06:41;;;;;;;2.35;2.22;;;;;;;15.99;63.59;97900.94;5038774;28;20044;-80
2021/09/04 10:09:07;;;;;;;2.63;2.42;;;;;;;16.24;61.82;97912.97;5006155;28;20051;-79
2021/09/04 10:11:36;;;;;;;2.30;2.10;;;;;;;16.47;58.72;97909.22;5022766;28;20472;-79
2021/09/04 10:14:04;;;;;;;2.28;2.08;;;;;;;16.52;59.98;97910.31;5039493;28;20098;-81
2021/09/04 10:16:30;;;;;;;2.67;2.47;;;;;;;16.50;59.17;97923.13;5022407;28;20553;-80
2021/09/04 10:18:56;;;;;;;2.25;2.15;;;;;;;16.71;57.83;97907.97;5038059;28;20123;-80
2021/09/04 10:21:23;;;;;;;1.77;1.67;;;;;;;17.07;56.87;97907.78;5006218;28;20047;-78
2021/09/04 10:23:50;;;;;;;1.88;1.77;;;;;;;17.32;55.49;97912.69;5022105;28;20135;-80
2021/09/04 10:26:29;;;;;;;2.38;2.17;;;;;;;17.56;55.80;97914.03;5038677;28;20040;-80
2021/09/04 10:29:15;;;;;;;2.10;1.95;;;;;;;17.61;53.08;97914.28;5038970;28;20051;-79
2021/09/04 10:31:54;;;;;;;1.63;1.50;;;;;;;17.41;52.26;97922.28;5038812;28;20033;-75
2021/09/04 10:34:27;;;;;;;2.00;1.90;;;;;;;17.61;52.08;97944.84;5055311;28;20051;-74
2021/09/04 10:37:04;;;;;;;1.60;1.50;;;;;;;17.90;51.83;97932.91;5071496;28;20048;-74
2021/09/04 10:39:53;;;;;;;2.13;1.92;;;;;;;17.44;51.72;97971.34;5038935;28;20483;-75
2021/09/04 10:42:32;;;;;;;;;;;;;;;16.89;53.31;97956.06;5038691;28;20442;-76
2021/09/04 10:45:07;;;;;;;2.20;2.00;;;;;;;17.14;54.01;97962.66;5071382;28;19916;-74
2021/09/04 10:47:49;;;;;;;1.75;1.65;;;;;;;17.71;53.32;97971.47;5022464;28;20071;-74
2021/09/04 10:50:22;;;;;;;5.05;2.00;;;;;;;18.81;51.28;97983.00;5071308;28;20127;-75
2021/09/04 10:53:01;;;;;;;2.28;1.63;;;;;;;19.27;48.10;97977.53;5038422;28;20036;-75
2021/09/04 10:55:30;;;;;;;1.75;1.65;;;;;;;19.68;47.03;97983.69;5040461;28;20048;-74
2021/09/04 10:58:15;;;;;;;1.60;1.50;;;;;;;19.99;46.34;97981.03;5071901;28;20422;-74
2021/09/04 11:00:45;;;;;;;1.50;1.38;;;;;;;19.67;44.98;98004.56;5054421;28;20184;-74
2021/09/04 11:03:17;;;;;;;2.63;1.60;;;;;;;19.99;45.83;97989.19;5038028;28;20048;-74
2021/09/04 11:05:50;;;;;;;2.42;2.10;;;;;;;20.85;43.53;97995.97;5021304;28;20047;-73
2021/09/04 11:08:19;;;;;;;5.15;1.80;;;;;;;20.15;42.65;97998.69;5021805;28;20045;-74
2021/09/04 11:10:47;;;;;;;2.03;1.83;;;;;;;19.23;42.55;98013.38;5071661;28;20400;-75
2021/09/04 11:13:13;;;;;;;2.10;1.70;;;;;;;19.17;42.29;98005.03;5054110;28;20067;-75
2021/09/04 11:15:43;;;;;;;2.65;2.00;;;;;;;20.29;40.36;98002.19;5053905;28;20499;-74
2021/09/04 11:18:11;;;;;;;2.15;1.40;;;;;;;20.73;38.22;98039.31;5021137;28;20142;-75
2021/09/04 11:20:44;;;;;;;2.85;1.40;;;;;;;20.18;39.16;98017.25;5037736;28;20128;-74
2021/09/04 11:23:10;;;;;;;1.42;1.30;;;;;;;20.54;38.57;98016.66;5054125;28;20044;-74
2021/09/04 11:25:42;;;;;;;4.68;3.75;;;;;;;20.72;38.13;98025.94;5037170;28;20056;-74
2021/09/04 11:28:08;;;;;;;4.18;2.38;;;;;;;20.51;37.83;98022.53;5054492;28;20049;-73
2021/09/04 11:30:34;;;;;;;5.32;2.00;;;;;;;21.24;37.07;98021.13;5022806;28;20040;-74
2021/09/04 11:33:13;;;;;;;1.88;1.60;;;;;;;21.71;34.73;98025.06;5057715;28;20048;-75